Time,TemperatureF,DewpointF,PressureIn,WindDirection,WindDirectionDegrees,WindSpeedMPH,WindSpeedGustMPH,Humidity,HourlyPrecipIn,Conditions,Clouds,dailyrainin,SoftwareType,DateUTC
2013-03-28 00:00:00,43.4,23.4,29.94,SSW,204,11.0,11.0,45,0.00,CLR,CLR,0.00,WeatherDisplay:10.34,2013-03-28 06:00:00,
2013-03-28 00:05:00,42.9,23.0,29.94,SW,215,10.0,10.0,45,0.00,CLR,CLR,0.00,WeatherDisplay:10.34,2013-03-28 06:05:00,
2013-03-28 00:10:00,42.6,22.7,29.94,SSW,210,10.0,0.0,45,0.00,CLR,CLR,0.00,WeatherDisplay:10.34,2013-03-28 06:10:00,
2013-03-28 00:15:00,42.4,23.1,29.94,SSW,211,9.0,9.0,46,0.00,CLR,CLR,0.00,WeatherDisplay:10.34,2013-03-28 06:15:00,
2013-03-28 00:20:00,42.3,23.0,29.94,SW,216,11.0,11.0,46,0.00,CLR,CLR,0.00,WeatherDisplay:10.34,2013-03-28 06:20:00,
2013-03-28 00:25:00,42.4,23.1,29.93,SW,215,8.0,9.0,46,0.00,CLR,CLR,0.00,WeatherDisplay:10.34,2013-03-28 06:25:00,
2013-03-28 00:30:00,42.3,23.0,29.93,SSW,213,8.0,9.0,46,0.00,CLR,CLR,0.00,WeatherDisplay:10.34,2013-03-28 06:30:00,
2013-03-28 00:35:00,42.1,22.8,29.94,SSW,213,8.0,8.0,46,0.00,CLR,CLR,0.00,WeatherDisplay:10.34,2013-03-28 06:35:00,
2013-03-28 00:40:00,41.7,22.4,29.94,SW,215,10.0,10.0,46,0.00,CLR,CLR,0.00,WeatherDisplay:10.34,2013-03-28 06:40:00,
2013-03-28 00:45:00,41.4,22.1,29.94,SW,215,9.0,9.0,46,0.00,CLR,CLR,0.00,WeatherDisplay:10.34,2013-03-28 06:45:00,
2013-03-28 00:50:00,41.1,22.4,29.94,SSW,213,8.0,8.0,47,0.00,CLR,CLR,0.00,WeatherDisplay:10.34,2013-03-28 06:50:00,
2013-03-28 00:55:00,41.0,21.8,29.94,SSW,206,7.0,7.0,46,0.00,CLR,CLR,0.00,WeatherDisplay:10.34,2013-03-28 06:55:00,
2013-03-28 01:00:00,40.8,22.1,29.94,SSW,204,8.0,8.0,47,0.00,CLR,CLR,0.00,WeatherDisplay:10.34,2013-03-28 07:00:00,
2013-03-28 01:05:00,40.4,20.7,29.94,SSW,203,9.0,9.0,45,0.00,CLR,CLR,0.00,WeatherDisplay:10.34,2013-03-28 07:05:00,
2013-03-28 01:10:00,40.1,22.4,29.94,SSW,205,11.0,11.0,49,0.00,CLR,CLR,0.00,WeatherDisplay:10.34,2013-03-28 07:10:00,
2013-03-28 01:15:00,40.3,22.1,29.95,SSW,209,7.0,8.0,48,0.00,CLR,CLR,0.00,WeatherDisplay:10.34,2013-03-28 07:15:00,
2013-03-28 01:20:00,40.1,22.0,29.95,SW,222,7.0,9.0,48,0.00,CLR,CLR,0.00,WeatherDisplay:10.34,2013-03-28 07:20:00,
2013-03-28 01:25:00,40.0,21.9,29.95,SSW,213,7.0,7.0,48,0.00,CLR,CLR,0.00,WeatherDisplay:10.34,2013-03-28 07:25:00,
2013-03-28 01:30:00,39.8,22.2,29.95,SSW,205,7.0,7.0,49,0.00,CLR,CLR,0.00,WeatherDisplay:10.34,2013-03-28 07:30:00,
2013-03-28 01:35:00,39.6,22.0,29.95,SW,220,9.0,9.0,49,0.00,CLR,CLR,0.00,WeatherDisplay:10.34,2013-03-28 07:35:00,
2013-03-28 01:40:00,39.2,21.6,29.95,SSW,208,7.0,8.0,49,0.00,CLR,CLR,0.00,WeatherDisplay:10.34,2013-03-28 07:40:00,
2013-03-28 01:45:00,38.9,21.8,29.95,SW,218,10.0,10.0,50,0.00,CLR,CLR,0.00,WeatherDisplay:10.34,2013-03-28 07:45:00,
2013-03-28 01:50:00,38.8,22.2,29.95,SW,217,9.0,9.0,51,0.00,CLR,CLR,0.00,WeatherDisplay:10.34,2013-03-28 07:50:00,
2013-03-28 01:55:00,38.6,21.5,29.95,SSW,213,9.0,9.0,50,0.00,CLR,CLR,0.00,WeatherDisplay:10.34,2013-03-28 07:55:00,
2013-03-28 02:00:00,38.4,21.8,29.95,SW,232,8.0,9.0,51,0.00,CLR,CLR,0.00,WeatherDisplay:10.34,2013-03-28 08:00:00,
2013-03-28 02:05:00,38.3,21.7,29.95,SW,223,5.0,7.0,51,0.00,CLR,CLR,0.00,WeatherDisplay:10.34,2013-03-28 08:05:00,
2013-03-28 02:10:00,38.2,21.6,29.95,SW,223,6.0,7.0,51,0.00,CLR,CLR,0.00,WeatherDisplay:10.34,2013-03-28 08:10:00,
2013-03-28 02:15:00,38.0,21.5,29.94,SSW,206,5.0,5.0,51,0.00,CLR,CLR,0.00,WeatherDisplay:10.34,2013-03-28 08:15:00,
2013-03-28 02:20:00,37.5,21.0,29.94,SW,215,6.0,6.0,51,0.00,CLR,CLR,0.00,WeatherDisplay:10.34,2013-03-28 08:20:00,
2013-03-28 02:25:00,37.2,20.7,29.95,SW,215,4.0,4.0,51,0.00,CLR,CLR,0.00,WeatherDisplay:10.34,2013-03-28 08:25:00,
2013-03-28 02:30:00,36.8,20.8,29.95,SW,215,4.0,4.0,52,0.00,CLR,CLR,0.00,WeatherDisplay:10.34,2013-03-28 08:30:00,
2013-03-28 02:35:00,36.4,20.4,29.94,SW,215,0.0,0.0,52,0.00,CLR,CLR,0.00,WeatherDisplay:10.34,2013-03-28 08:35:00,
2013-03-28 02:40:00,36.1,20.2,29.94,SW,215,0.0,1.0,52,0.00,CLR,CLR,0.00,WeatherDisplay:10.34,2013-03-28 08:40:00,
2013-03-28 02:45:00,35.7,20.2,29.95,SW,216,4.0,4.0,53,0.00,CLR,CLR,0.00,WeatherDisplay:10.34,2013-03-28 08:45:00,
2013-03-28 02:50:00,35.4,20.4,29.95,SSW,207,6.0,6.0,54,0.00,CLR,CLR,0.00,WeatherDisplay:10.34,2013-03-28 08:50:00,
2013-03-28 02:55:00,35.2,21.1,29.95,SW,219,7.0,10.0,56,0.00,CLR,CLR,0.00,WeatherDisplay:10.34,2013-03-28 08:55:00,
2013-03-28 03:00:00,35.2,21.1,29.95,SW,217,4.0,5.0,56,0.00,CLR,CLR,0.00,WeatherDisplay:10.34,2013-03-28 09:00:00,
2013-03-28 03:05:00,35.1,20.5,29.95,SSW,211,4.0,4.0,55,0.00,CLR,CLR,0.00,WeatherDisplay:10.34,2013-03-28 09:05:00,
2013-03-28 03:10:00,34.9,20.8,29.95,SSW,209,8.0,8.0,56,0.00,CLR,CLR,0.00,WeatherDisplay:10.34,2013-03-28 09:10:00,
2013-03-28 03:15:00,34.8,20.7,29.95,SSW,213,9.0,9.0,56,0.00,CLR,CLR,0.00,WeatherDisplay:10.34,2013-03-28 09:15:00,
2013-03-28 03:20:00,34.8,21.5,29.95,SSW,209,10.0,10.0,58,0.00,CLR,CLR,0.00,WeatherDisplay:10.34,2013-03-28 09:20:00,
2013-03-28 03:25:00,35.0,21.7,29.95,SSW,206,10.0,10.0,58,0.00,CLR,CLR,0.00,WeatherDisplay:10.34,2013-03-28 09:25:00,
2013-03-28 03:30:00,35.3,22.0,29.95,SSW,206,8.0,8.0,58,0.00,CLR,CLR,0.00,WeatherDisplay:10.34,2013-03-28 09:30:00,
2013-03-28 03:35:00,35.4,21.7,29.95,SSW,198,8.0,8.0,57,0.00,CLR,CLR,0.00,WeatherDisplay:10.34,2013-03-28 09:35:00,
2013-03-28 03:40:00,35.5,21.8,29.95,SSW,207,7.0,8.0,57,0.00,CLR,CLR,0.00,WeatherDisplay:10.34,2013-03-28 09:40:00,
2013-03-28 03:45:00,35.4,21.2,29.95,SSW,205,7.0,8.0,56,0.00,CLR,CLR,0.00,WeatherDisplay:10.34,2013-03-28 09:45:00,
2013-03-28 03:50:00,35.2,21.1,29.95,SSW,211,9.0,9.0,56,0.00,CLR,CLR,0.00,WeatherDisplay:10.34,2013-03-28 09:50:00,
2013-03-28 03:55:00,35.2,21.5,29.95,SW,217,9.0,9.0,57,0.00,CLR,CLR,0.00,WeatherDisplay:10.34,2013-03-28 09:55:00,
2013-03-28 04:00:00,35.1,21.0,29.95,SSW,205,9.0,9.0,56,0.00,CLR,CLR,0.00,WeatherDisplay:10.34,2013-03-28 10:00:00,
2013-03-28 04:05:00,35.1,21.4,29.95,SSW,210,9.0,9.0,57,0.00,CLR,CLR,0.00,WeatherDisplay:10.34,2013-03-28 10:05:00,
2013-03-28 04:10:00,35.2,21.5,29.96,SSW,210,8.0,9.0,57,0.00,CLR,CLR,0.00,WeatherDisplay:10.34,2013-03-28 10:10:00,
2013-03-28 04:15:00,35.2,21.5,29.96,SW,222,5.0,7.0,57,0.00,CLR,CLR,0.00,WeatherDisplay:10.34,2013-03-28 10:15:00,
2013-03-28 04:20:00,35.3,21.6,29.96,SSW,213,5.0,5.0,57,0.00,CLR,CLR,0.00,WeatherDisplay:10.34,2013-03-28 10:20:00,
2013-03-28 04:25:00,35.2,21.5,29.96,SSW,203,11.0,11.0,57,0.00,CLR,CLR,0.00,WeatherDisplay:10.34,2013-03-28 10:25:00,
2013-03-28 04:30:00,35.2,21.5,29.96,SW,215,9.0,9.0,57,0.00,CLR,CLR,0.00,WeatherDisplay:10.34,2013-03-28 10:30:00,
2013-03-28 04:35:00,35.2,21.9,29.96,SW,217,9.0,10.0,58,0.00,CLR,CLR,0.00,WeatherDisplay:10.34,2013-03-28 10:35:00,
2013-03-28 04:40:00,35.2,21.5,29.96,SW,214,8.0,8.0,57,0.00,CLR,CLR,0.00,WeatherDisplay:10.34,2013-03-28 10:40:00,
2013-03-28 04:45:00,35.2,21.1,29.96,SSW,206,9.0,9.0,56,0.00,CLR,CLR,0.00,WeatherDisplay:10.34,2013-03-28 10:45:00,
2013-03-28 04:50:00,35.1,21.4,29.96,SSW,202,6.0,8.0,57,0.00,CLR,CLR,0.00,WeatherDisplay:10.34,2013-03-28 10:50:00,
2013-03-28 04:55:00,35.2,21.5,29.96,SSW,205,10.0,10.0,57,0.00,CLR,CLR,0.00,WeatherDisplay:10.34,2013-03-28 10:55:00,
2013-03-28 05:00:00,35.3,21.6,29.96,SSW,202,7.0,7.0,57,0.00,CLR,CLR,0.00,WeatherDisplay:10.34,2013-03-28 11:00:00,
2013-03-28 05:05:00,35.4,21.7,29.96,SW,215,8.0,9.0,57,0.00,CLR,CLR,0.00,WeatherDisplay:10.34,2013-03-28 11:05:00,
2013-03-28 05:10:00,35.5,21.8,29.96,SW,219,0.0,2.0,57,0.00,CLR,CLR,0.00,WeatherDisplay:10.34,2013-03-28 11:10:00,
2013-03-28 05:15:00,35.6,21.9,29.96,SW,219,0.0,2.0,57,0.00,CLR,CLR,0.00,WeatherDisplay:10.34,2013-03-28 11:15:00,
2013-03-28 05:20:00,35.4,21.7,29.96,NNW,336,2.0,2.0,57,0.00,CLR,CLR,0.00,WeatherDisplay:10.34,2013-03-28 11:20:00,
2013-03-28 05:25:00,35.3,21.6,29.97,WNW,282,2.0,2.0,57,0.00,CLR,CLR,0.00,WeatherDisplay:10.34,2013-03-28 11:25:00,
2013-03-28 05:30:00,35.2,21.9,29.97,West,263,4.0,4.0,58,0.00,CLR,CLR,0.00,WeatherDisplay:10.34,2013-03-28 11:30:00,
2013-03-28 05:35:00,35.4,22.1,29.97,SW,226,3.0,3.0,58,0.00,CLR,CLR,0.00,WeatherDisplay:10.34,2013-03-28 11:35:00,
2013-03-28 05:40:00,35.4,21.7,29.97,SW,227,2.0,2.0,57,0.00,CLR,CLR,0.00,WeatherDisplay:10.34,2013-03-28 11:40:00,
2013-03-28 05:45:00,35.5,22.2,29.97,SW,227,1.0,2.0,58,0.00,CLR,CLR,0.00,WeatherDisplay:10.34,2013-03-28 11:45:00,
2013-03-28 05:50:00,35.5,21.8,29.97,SW,227,1.0,1.0,57,0.00,CLR,CLR,0.00,WeatherDisplay:10.34,2013-03-28 11:50:00,
2013-03-28 05:55:00,35.4,21.7,29.97,SW,226,6.0,6.0,57,0.00,CLR,CLR,0.00,WeatherDisplay:10.34,2013-03-28 11:55:00,
2013-03-28 06:00:00,35.2,21.5,29.97,SW,223,5.0,5.0,57,0.00,CLR,CLR,0.00,WeatherDisplay:10.34,2013-03-28 12:00:00,
2013-03-28 06:05:00,35.3,22.0,29.97,WSW,254,4.0,5.0,58,0.00,CLR,CLR,0.00,WeatherDisplay:10.34,2013-03-28 12:05:00,
2013-03-28 06:10:00,34.6,19.6,29.97,WSW,253,2.0,3.0,54,0.00,CLR,CLR,0.00,WeatherDisplay:10.34,2013-03-28 12:10:00,
2013-03-28 06:15:00,33.2,19.2,29.97,WSW,253,2.0,2.0,56,0.00,CLR,CLR,0.00,WeatherDisplay:10.34,2013-03-28 12:15:00,
2013-03-28 06:20:00,32.4,18.8,29.97,WSW,253,4.0,4.0,57,0.00,CLR,CLR,0.00,WeatherDisplay:10.34,2013-03-28 12:20:00,
2013-03-28 06:25:00,31.7,19.0,29.98,WSW,253,3.0,3.0,59,0.00,CLR,CLR,0.00,WeatherDisplay:10.34,2013-03-28 12:25:00,
2013-03-28 06:30:00,31.3,19.0,29.98,NW,326,5.0,5.0,60,0.00,CLR,CLR,0.00,WeatherDisplay:10.34,2013-03-28 12:30:00,
2013-03-28 06:35:00,30.7,19.2,29.98,NW,326,5.0,5.0,62,0.00,CLR,CLR,0.00,WeatherDisplay:10.34,2013-03-28 12:35:00,
2013-03-28 06:40:00,30.2,19.5,29.98,NW,325,3.0,3.0,64,0.00,CLR,CLR,0.00,WeatherDisplay:10.34,2013-03-28 12:40:00,
2013-03-28 06:45:00,30.1,19.4,29.98,NW,325,0.0,0.0,64,0.00,CLR,CLR,0.00,WeatherDisplay:10.34,2013-03-28 12:45:00,
2013-03-28 06:50:00,30.0,18.9,29.98,NW,325,0.0,0.0,63,0.00,CLR,CLR,0.00,WeatherDisplay:10.34,2013-03-28 12:50:00,
2013-03-28 06:55:00,29.9,18.8,29.98,WSW,240,5.0,5.0,63,0.00,CLR,CLR,0.00,WeatherDisplay:10.34,2013-03-28 12:55:00,
2013-03-28 07:00:00,29.7,19.4,29.98,WSW,240,0.0,1.0,65,0.00,CLR,CLR,0.00,WeatherDisplay:10.34,2013-03-28 13:00:00,
2013-03-28 07:05:00,29.6,19.6,30.00,WSW,240,0.0,1.0,66,0.00,OVC,OVC,0.00,WeatherDisplay:10.34,2013-03-28 13:05:00,
2013-03-28 07:10:00,29.6,19.3,30.00,WSW,240,2.0,2.0,65,0.00,OVC,OVC,0.00,WeatherDisplay:10.34,2013-03-28 13:10:00,
2013-03-28 07:15:00,29.8,20.5,30.00,WNW,288,4.0,4.0,68,0.00,CLR,CLR,0.00,WeatherDisplay:10.34,2013-03-28 13:15:00,
2013-03-28 07:20:00,29.9,20.6,30.00,WNW,287,3.0,3.0,68,0.00,CLR,CLR,0.00,WeatherDisplay:10.34,2013-03-28 13:20:00,
2013-03-28 07:25:00,30.2,21.6,30.00,WNW,287,5.0,5.0,70,0.00,CLR,CLR,0.00,WeatherDisplay:10.34,2013-03-28 13:25:00,
2013-03-28 07:30:00,30.7,21.4,30.00,SW,231,4.0,4.0,68,0.00,CLR,CLR,0.00,WeatherDisplay:10.34,2013-03-28 13:30:00,
2013-03-28 07:35:00,30.7,20.0,30.00,SW,215,3.0,3.0,64,0.00,CLR,CLR,0.00,WeatherDisplay:10.34,2013-03-28 13:35:00,
2013-03-28 07:40:00,30.6,19.1,30.00,SW,215,3.0,3.0,62,0.00,CLR,CLR,0.00,WeatherDisplay:10.34,2013-03-28 13:40:00,
2013-03-28 07:45:00,30.7,19.6,30.00,SW,215,1.0,2.0,63,0.00,CLR,CLR,0.00,WeatherDisplay:10.34,2013-03-28 13:45:00,
2013-03-28 07:50:00,30.9,20.1,30.00,SW,215,0.0,0.0,64,0.00,CLR,CLR,0.00,WeatherDisplay:10.34,2013-03-28 13:50:00,
2013-03-28 07:55:00,31.2,19.7,30.01,SW,215,2.0,2.0,62,0.00,CLR,CLR,0.00,WeatherDisplay:10.34,2013-03-28 13:55:00,
2013-03-28 08:00:00,31.6,19.7,30.01,SW,215,0.0,0.0,61,0.00,CLR,CLR,0.00,WeatherDisplay:10.34,2013-03-28 14:00:00,
2013-03-28 08:05:00,32.0,20.4,30.01,SW,215,0.0,1.0,62,0.00,CLR,CLR,0.00,WeatherDisplay:10.34,2013-03-28 14:05:00,
2013-03-28 08:10:00,32.5,20.9,30.01,SW,215,0.0,0.0,62,0.00,CLR,CLR,0.00,WeatherDisplay:10.34,2013-03-28 14:10:00,
2013-03-28 08:15:00,33.1,21.9,30.01,SW,215,0.0,0.0,63,0.00,CLR,CLR,0.00,WeatherDisplay:10.34,2013-03-28 14:15:00,
2013-03-28 08:20:00,33.8,22.5,30.01,SW,215,0.0,0.0,63,0.00,CLR,CLR,0.00,WeatherDisplay:10.34,2013-03-28 14:20:00,
2013-03-28 08:25:00,34.8,23.1,30.01,SW,215,3.0,3.0,62,0.00,CLR,CLR,0.00,WeatherDisplay:10.34,2013-03-28 14:25:00,
2013-03-28 08:30:00,36.1,23.5,30.01,SW,215,0.0,0.0,60,0.00,CLR,CLR,0.00,WeatherDisplay:10.34,2013-03-28 14:30:00,
2013-03-28 08:35:00,37.3,23.9,30.01,SW,215,0.0,0.0,58,0.00,CLR,CLR,0.00,WeatherDisplay:10.34,2013-03-28 14:35:00,
2013-03-28 08:40:00,38.3,24.4,30.01,SW,215,0.0,0.0,57,0.00,CLR,CLR,0.00,WeatherDisplay:10.34,2013-03-28 14:40:00,
2013-03-28 08:45:00,39.4,25.0,30.01,SW,215,0.0,0.0,56,0.00,CLR,CLR,0.00,WeatherDisplay:10.34,2013-03-28 14:45:00,
2013-03-28 08:50:00,40.6,25.2,30.01,SW,215,0.0,0.0,54,0.00,CLR,CLR,0.00,WeatherDisplay:10.34,2013-03-28 14:50:00,
2013-03-28 08:55:00,41.7,25.8,30.01,SW,215,0.0,1.0,53,0.00,CLR,CLR,0.00,WeatherDisplay:10.34,2013-03-28 14:55:00,
2013-03-28 09:00:00,42.6,25.7,30.01,SW,215,0.0,1.0,51,0.00,CLR,CLR,0.00,WeatherDisplay:10.34,2013-03-28 15:00:00,
2013-03-28 09:05:00,43.4,26.0,30.02,WSW,238,2.0,2.0,50,0.00,CLR,CLR,0.00,WeatherDisplay:10.34,2013-03-28 15:05:00,
2013-03-28 09:10:00,43.8,25.9,30.02,NNW,327,3.0,3.0,49,0.00,CLR,CLR,0.00,WeatherDisplay:10.34,2013-03-28 15:10:00,
2013-03-28 09:15:00,44.3,25.8,30.02,NNW,348,1.0,2.0,48,0.00,CLR,CLR,0.00,WeatherDisplay:10.34,2013-03-28 15:15:00,
2013-03-28 09:20:00,44.9,25.9,30.02,NNW,348,0.0,0.0,47,0.00,CLR,CLR,0.00,WeatherDisplay:10.34,2013-03-28 15:20:00,
2013-03-28 09:25:00,45.5,25.9,30.02,NNW,348,1.0,1.0,46,0.00,CLR,CLR,0.00,WeatherDisplay:10.34,2013-03-28 15:25:00,
2013-03-28 09:30:00,46.1,26.4,30.02,NNW,348,1.0,1.0,46,0.00,CLR,CLR,0.00,WeatherDisplay:10.34,2013-03-28 15:30:00,
2013-03-28 09:35:00,46.8,26.0,30.02,North,360,3.0,3.0,44,0.00,CLR,CLR,0.00,WeatherDisplay:10.34,2013-03-28 15:35:00,
2013-03-28 09:40:00,47.5,26.1,30.02,NNE,24,0.0,0.0,43,0.00,CLR,CLR,0.00,WeatherDisplay:10.34,2013-03-28 15:40:00,
2013-03-28 09:45:00,48.2,26.2,30.02,NNE,26,2.0,2.0,42,0.00,CLR,CLR,0.00,WeatherDisplay:10.34,2013-03-28 15:45:00,
2013-03-28 09:50:00,48.9,26.8,30.02,NE,53,2.0,2.0,42,0.00,CLR,CLR,0.00,WeatherDisplay:10.34,2013-03-28 15:50:00,
2013-03-28 09:55:00,49.4,26.1,30.02,ESE,118,4.0,5.0,40,0.00,CLR,CLR,0.00,WeatherDisplay:10.34,2013-03-28 15:55:00,
2013-03-28 10:00:00,49.6,26.2,30.02,ENE,67,2.0,3.0,40,0.00,CLR,CLR,0.00,WeatherDisplay:10.34,2013-03-28 16:00:00,
2013-03-28 10:05:00,49.9,26.5,30.02,ENE,70,1.0,2.0,40,0.00,CLR,CLR,0.00,WeatherDisplay:10.34,2013-03-28 16:05:00,
2013-03-28 10:10:00,50.3,26.9,30.02,East,80,4.0,9.0,40,0.00,CLR,CLR,0.00,WeatherDisplay:10.34,2013-03-28 16:10:00,
2013-03-28 10:15:00,51.0,26.9,30.02,NE,40,3.0,3.0,39,0.00,CLR,CLR,0.00,WeatherDisplay:10.34,2013-03-28 16:15:00,
2013-03-28 10:20:00,51.4,27.2,30.02,ESE,120,7.0,7.0,39,0.00,CLR,CLR,0.00,WeatherDisplay:10.34,2013-03-28 16:20:00,
2013-03-28 10:25:00,51.5,27.3,30.03,ENE,57,6.0,6.0,39,0.00,CLR,CLR,0.00,WeatherDisplay:10.34,2013-03-28 16:25:00,
2013-03-28 10:30:00,51.7,26.9,30.03,NE,44,4.0,7.0,38,0.00,CLR,CLR,0.00,WeatherDisplay:10.34,2013-03-28 16:30:00,
2013-03-28 10:35:00,51.8,27.0,30.03,East,82,7.0,9.0,38,0.00,CLR,CLR,0.00,WeatherDisplay:10.34,2013-03-28 16:35:00,
2013-03-28 10:40:00,51.8,27.0,30.03,NE,41,5.0,5.0,38,0.00,CLR,CLR,0.00,WeatherDisplay:10.34,2013-03-28 16:40:00,
2013-03-28 10:45:00,52.3,26.8,30.03,ENE,75,4.0,8.0,37,0.00,CLR,CLR,0.00,WeatherDisplay:10.34,2013-03-28 16:45:00,
2013-03-28 10:50:00,52.6,27.0,30.03,ENE,72,1.0,0.0,37,0.00,CLR,CLR,0.00,WeatherDisplay:10.34,2013-03-28 16:50:00,
2013-03-28 10:55:00,52.8,27.2,30.03,East,84,6.0,9.0,37,0.00,CLR,CLR,0.00,WeatherDisplay:10.34,2013-03-28 16:55:00,
2013-03-28 11:00:00,52.9,26.6,30.03,East,88,1.0,3.0,36,0.00,CLR,CLR,0.00,WeatherDisplay:10.34,2013-03-28 17:00:00,
2013-03-28 11:05:00,53.5,27.2,30.03,NE,42,6.0,7.0,36,0.00,CLR,CLR,0.00,WeatherDisplay:10.34,2013-03-28 17:05:00,
2013-03-28 11:10:00,54.1,27.0,30.03,NNE,26,5.0,7.0,35,0.00,CLR,CLR,0.00,WeatherDisplay:10.34,2013-03-28 17:10:00,
2013-03-28 11:15:00,54.6,27.5,30.03,NE,45,5.0,7.0,35,0.00,CLR,CLR,0.00,WeatherDisplay:10.34,2013-03-28 17:15:00,
2013-03-28 11:20:00,54.9,27.0,30.03,NE,42,2.0,3.0,34,0.00,CLR,CLR,0.00,WeatherDisplay:10.34,2013-03-28 17:20:00,
2013-03-28 11:25:00,55.4,27.5,30.02,NNE,14,2.0,3.0,34,0.00,CLR,CLR,0.00,WeatherDisplay:10.34,2013-03-28 17:25:00,
2013-03-28 11:30:00,55.7,27.7,30.02,ESE,115,6.0,7.0,34,0.00,CLR,CLR,0.00,WeatherDisplay:10.34,2013-03-28 17:30:00,
2013-03-28 11:35:00,55.9,27.2,30.02,ESE,113,4.0,5.0,33,0.00,CLR,CLR,0.00,WeatherDisplay:10.34,2013-03-28 17:35:00,
2013-03-28 11:40:00,56.4,27.6,30.02,North,5,6.0,8.0,33,0.00,CLR,CLR,0.00,WeatherDisplay:10.34,2013-03-28 17:40:00,
2013-03-28 11:45:00,56.6,27.8,30.01,East,87,5.0,7.0,33,0.00,CLR,CLR,0.00,WeatherDisplay:10.34,2013-03-28 17:45:00,
2013-03-28 11:50:00,57.0,28.1,30.01,NNW,329,5.0,7.0,33,0.00,CLR,CLR,0.00,WeatherDisplay:10.34,2013-03-28 17:50:00,
2013-03-28 11:55:00,57.5,27.8,30.01,ENE,78,7.0,7.0,32,0.00,CLR,CLR,0.00,WeatherDisplay:10.34,2013-03-28 17:55:00,
2013-03-28 12:00:00,58.1,27.6,30.01,ENE,58,10.0,10.0,31,0.00,CLR,CLR,0.00,WeatherDisplay:10.34,2013-03-28 18:00:00,
2013-03-28 12:05:00,58.2,27.7,30.01,NNE,33,11.0,12.0,31,0.00,CLR,CLR,0.00,WeatherDisplay:10.34,2013-03-28 18:05:00,
2013-03-28 12:10:00,58.4,27.9,30.01,North,355,4.0,4.0,31,0.00,CLR,CLR,0.00,WeatherDisplay:10.34,2013-03-28 18:10:00,
2013-03-28 12:15:00,58.7,27.3,30.01,ESE,103,9.0,10.0,30,0.00,CLR,CLR,0.00,WeatherDisplay:10.34,2013-03-28 18:15:00,
2013-03-28 12:20:00,59.0,27.6,30.01,NE,53,10.0,0.0,30,0.00,CLR,CLR,0.00,WeatherDisplay:10.34,2013-03-28 18:20:00,
2013-03-28 12:25:00,59.5,27.2,30.00,ESE,118,14.0,14.0,29,0.00,CLR,CLR,0.00,WeatherDisplay:10.34,2013-03-28 18:25:00,
2013-03-28 12:30:00,59.1,27.7,30.00,NNE,16,5.0,0.0,30,0.00,CLR,CLR,0.00,WeatherDisplay:10.34,2013-03-28 18:30:00,
2013-03-28 12:35:00,59.4,27.1,30.00,NE,35,3.0,5.0,29,0.00,CLR,CLR,0.00,WeatherDisplay:10.34,2013-03-28 18:35:00,
2013-03-28 12:40:00,60.2,27.8,30.00,NE,42,6.0,6.0,29,0.00,CLR,CLR,0.00,WeatherDisplay:10.34,2013-03-28 18:40:00,
2013-03-28 12:45:00,60.5,27.2,29.99,NE,47,13.0,13.0,28,0.00,CLR,CLR,0.00,WeatherDisplay:10.34,2013-03-28 18:45:00,
2013-03-28 12:50:00,60.3,27.0,29.99,SSE,152,1.0,1.0,28,0.00,CLR,CLR,0.00,WeatherDisplay:10.34,2013-03-28 18:50:00,
2013-03-28 12:55:00,60.4,28.0,29.99,NNE,14,6.0,8.0,29,0.00,CLR,CLR,0.00,WeatherDisplay:10.34,2013-03-28 18:55:00,
2013-03-28 13:00:00,60.8,27.5,29.99,ESE,119,9.0,9.0,28,0.00,CLR,CLR,0.00,WeatherDisplay:10.34,2013-03-28 19:00:00,
2013-03-28 13:05:00,61.2,27.8,29.99,NNE,14,4.0,5.0,28,0.00,CLR,CLR,0.00,WeatherDisplay:10.34,2013-03-28 19:05:00,
2013-03-28 13:10:00,61.6,27.3,29.99,North,360,10.0,10.0,27,0.00,CLR,CLR,0.00,WeatherDisplay:10.34,2013-03-28 19:10:00,
2013-03-28 13:15:00,61.7,28.2,29.99,East,93,6.0,8.0,28,0.00,CLR,CLR,0.00,WeatherDisplay:10.34,2013-03-28 19:15:00,
2013-03-28 13:20:00,62.3,26.9,29.99,East,84,9.0,9.0,26,0.00,CLR,CLR,0.00,WeatherDisplay:10.34,2013-03-28 19:20:00,
2013-03-28 13:25:00,62.7,27.3,29.98,ESE,121,4.0,4.0,26,0.00,CLR,CLR,0.00,WeatherDisplay:10.34,2013-03-28 19:25:00,
2013-03-28 13:30:00,62.6,27.2,29.98,NE,46,4.0,4.0,26,0.00,CLR,CLR,0.00,WeatherDisplay:10.34,2013-03-28 19:30:00,
2013-03-28 13:35:00,63.0,27.5,29.98,East,101,6.0,8.0,26,0.00,CLR,CLR,0.00,WeatherDisplay:10.34,2013-03-28 19:35:00,
2013-03-28 13:40:00,62.8,26.4,29.98,SE,141,8.0,8.0,25,0.00,CLR,CLR,0.00,WeatherDisplay:10.34,2013-03-28 19:40:00,
2013-03-28 13:45:00,62.3,26.9,29.98,NNE,30,4.0,5.0,26,0.00,CLR,CLR,0.00,WeatherDisplay:10.34,2013-03-28 19:45:00,
2013-03-28 13:50:00,62.6,26.2,29.98,East,100,15.0,15.0,25,0.00,CLR,CLR,0.00,WeatherDisplay:10.34,2013-03-28 19:50:00,
2013-03-28 13:55:00,62.6,26.2,29.97,ESE,112,5.0,7.0,25,0.00,CLR,CLR,0.00,WeatherDisplay:10.34,2013-03-28 19:55:00,
2013-03-28 14:00:00,62.7,27.3,29.97,NW,304,5.0,5.0,26,0.00,CLR,CLR,0.00,WeatherDisplay:10.34,2013-03-28 20:00:00,
2013-03-28 14:05:00,63.1,27.6,29.97,SE,134,10.0,12.0,26,0.00,CLR,CLR,0.00,WeatherDisplay:10.34,2013-03-28 20:05:00,
2013-03-28 14:10:00,62.6,26.2,29.97,ESE,107,14.0,14.0,25,0.00,CLR,CLR,0.00,WeatherDisplay:10.34,2013-03-28 20:10:00,
2013-03-28 14:15:00,62.0,26.7,29.97,SSW,207,5.0,5.0,26,0.00,CLR,CLR,0.00,WeatherDisplay:10.34,2013-03-28 20:15:00,
2013-03-28 14:20:00,62.2,26.9,29.96,East,94,2.0,2.0,26,0.00,CLR,CLR,0.00,WeatherDisplay:10.34,2013-03-28 20:20:00,
2013-03-28 14:25:00,62.9,27.5,29.96,East,86,7.0,13.0,26,0.00,CLR,CLR,0.00,WeatherDisplay:10.34,2013-03-28 20:25:00,
2013-03-28 14:30:00,63.0,27.5,29.96,NE,48,4.0,5.0,26,0.00,CLR,CLR,0.00,WeatherDisplay:10.34,2013-03-28 20:30:00,
2013-03-28 14:35:00,63.3,27.8,29.96,ENE,61,8.0,12.0,26,0.00,CLR,CLR,0.00,WeatherDisplay:10.34,2013-03-28 20:35:00,
2013-03-28 14:40:00,63.7,27.2,29.96,East,82,12.0,12.0,25,0.00,CLR,CLR,0.00,WeatherDisplay:10.34,2013-03-28 20:40:00,
2013-03-28 14:45:00,64.0,27.4,29.95,ENE,72,4.0,9.0,25,0.00,CLR,CLR,0.00,WeatherDisplay:10.34,2013-03-28 20:45:00,
2013-03-28 14:50:00,64.0,27.4,29.95,East,84,4.0,8.0,25,0.00,CLR,CLR,0.00,WeatherDisplay:10.34,2013-03-28 20:50:00,
2013-03-28 14:55:00,64.0,26.4,29.95,SE,144,6.0,7.0,24,0.00,CLR,CLR,0.00,WeatherDisplay:10.34,2013-03-28 20:55:00,
2013-03-28 15:00:00,63.8,27.3,29.95,SW,215,8.0,8.0,25,0.00,CLR,CLR,0.00,WeatherDisplay:10.34,2013-03-28 21:00:00,
2013-03-28 15:05:00,63.6,27.1,29.95,ENE,64,10.0,10.0,25,0.00,CLR,CLR,0.00,WeatherDisplay:10.34,2013-03-28 21:05:00,
2013-03-28 15:10:00,63.6,26.1,29.95,SE,136,17.0,17.0,24,0.00,CLR,CLR,0.00,WeatherDisplay:10.34,2013-03-28 21:10:00,
2013-03-28 15:15:00,62.0,25.7,29.94,SSE,167,13.0,14.0,25,0.00,BKN,BKN,0.00,WeatherDisplay:10.34,2013-03-28 21:15:00,
2013-03-28 15:20:00,62.2,26.9,29.94,ENE,78,5.0,0.0,26,0.00,CLR,CLR,0.00,WeatherDisplay:10.34,2013-03-28 21:20:00,
2013-03-28 15:25:00,62.9,26.5,29.94,ESE,113,17.0,17.0,25,0.00,CLR,CLR,0.00,WeatherDisplay:10.34,2013-03-28 21:25:00,
2013-03-28 15:30:00,63.1,26.7,29.94,SE,131,12.0,12.0,25,0.00,CLR,CLR,0.00,WeatherDisplay:10.34,2013-03-28 21:30:00,
2013-03-28 15:35:00,63.1,26.7,29.94,SE,145,7.0,8.0,25,0.00,CLR,CLR,0.00,WeatherDisplay:10.34,2013-03-28 21:35:00,
2013-03-28 15:40:00,63.6,27.1,29.94,ESE,111,3.0,3.0,25,0.00,CLR,CLR,0.00,WeatherDisplay:10.34,2013-03-28 21:40:00,
2013-03-28 15:45:00,64.3,26.7,29.94,East,90,13.0,13.0,24,0.00,CLR,CLR,0.00,WeatherDisplay:10.34,2013-03-28 21:45:00,
2013-03-28 15:50:00,64.3,26.7,29.93,SSW,194,12.0,12.0,24,0.00,CLR,CLR,0.00,WeatherDisplay:10.34,2013-03-28 21:50:00,
2013-03-28 15:55:00,64.0,26.4,29.93,South,182,7.0,8.0,24,0.00,CLR,CLR,0.00,WeatherDisplay:10.34,2013-03-28 21:55:00,
2013-03-28 16:00:00,63.8,25.3,29.93,South,186,6.0,8.0,23,0.00,CLR,CLR,0.00,WeatherDisplay:10.34,2013-03-28 22:00:00,
2013-03-28 16:05:00,64.0,26.4,29.93,SE,135,15.0,15.0,24,0.00,CLR,CLR,0.00,WeatherDisplay:10.34,2013-03-28 22:05:00,
2013-03-28 16:10:00,64.2,26.6,29.93,ENE,69,11.0,11.0,24,0.00,CLR,CLR,0.00,WeatherDisplay:10.34,2013-03-28 22:10:00,
2013-03-28 16:15:00,63.6,26.1,29.93,SSW,200,10.0,10.0,24,0.00,CLR,CLR,0.00,WeatherDisplay:10.34,2013-03-28 22:15:00,
2013-03-28 16:20:00,63.2,26.8,29.93,ESE,120,13.0,0.0,25,0.00,CLR,CLR,0.00,WeatherDisplay:10.34,2013-03-28 22:20:00,
2013-03-28 16:25:00,63.5,26.0,29.93,ENE,74,3.0,3.0,24,0.00,CLR,CLR,0.00,WeatherDisplay:10.34,2013-03-28 22:25:00,
2013-03-28 16:30:00,63.6,26.1,29.93,ESE,110,9.0,12.0,24,0.00,CLR,CLR,0.00,WeatherDisplay:10.34,2013-03-28 22:30:00,
2013-03-28 16:35:00,63.1,25.7,29.93,ESE,113,10.0,12.0,24,0.00,CLR,CLR,0.00,WeatherDisplay:10.34,2013-03-28 22:35:00,
2013-03-28 16:40:00,62.9,26.5,29.92,East,88,15.0,15.0,25,0.00,CLR,CLR,0.00,WeatherDisplay:10.34,2013-03-28 22:40:00,
2013-03-28 16:45:00,62.9,26.5,29.92,East,91,13.0,13.0,25,0.00,CLR,CLR,0.00,WeatherDisplay:10.34,2013-03-28 22:45:00,
2013-03-28 16:50:00,62.7,26.3,29.92,East,84,13.0,14.0,25,0.00,CLR,CLR,0.00,WeatherDisplay:10.34,2013-03-28 22:50:00,
2013-03-28 16:55:00,62.2,25.9,29.92,South,173,12.0,12.0,25,0.00,BKN,BKN,0.00,WeatherDisplay:10.34,2013-03-28 22:55:00,
2013-03-28 17:00:00,61.7,25.5,29.92,South,182,9.0,9.0,25,0.00,FEW,FEW,0.00,WeatherDisplay:10.34,2013-03-28 23:00:00,
2013-03-28 17:05:00,61.4,25.2,29.92,ESE,118,13.0,13.0,25,0.00,FEW,FEW,0.00,WeatherDisplay:10.34,2013-03-28 23:05:00,
2013-03-28 17:10:00,61.7,25.5,29.92,SSE,168,15.0,0.0,25,0.00,SCT,SCT,0.00,WeatherDisplay:10.34,2013-03-28 23:10:00,
2013-03-28 17:15:00,61.6,25.4,29.93,SSE,150,17.0,17.0,25,0.00,FEW,FEW,0.00,WeatherDisplay:10.34,2013-03-28 23:15:00,
2013-03-28 17:20:00,61.4,25.2,29.93,SSE,156,12.0,12.0,25,0.00,FEW,FEW,0.00,WeatherDisplay:10.34,2013-03-28 23:20:00,
2013-03-28 17:25:00,61.4,25.2,29.92,SE,131,12.0,12.0,25,0.00,CLR,CLR,0.00,WeatherDisplay:10.34,2013-03-28 23:25:00,
2013-03-28 17:30:00,61.5,25.3,29.92,SE,136,17.0,17.0,25,0.00,CLR,CLR,0.00,WeatherDisplay:10.34,2013-03-28 23:30:00,
2013-03-28 17:35:00,61.5,25.3,29.92,SE,140,13.0,14.0,25,0.00,CLR,CLR,0.00,WeatherDisplay:10.34,2013-03-28 23:35:00,
2013-03-28 17:40:00,61.5,25.3,29.92,ESE,115,13.0,13.0,25,0.00,CLR,CLR,0.00,WeatherDisplay:10.34,2013-03-28 23:40:00,
2013-03-28 17:45:00,61.4,25.2,29.93,SE,128,15.0,15.0,25,0.00,CLR,CLR,0.00,WeatherDisplay:10.34,2013-03-28 23:45:00,
2013-03-28 17:50:00,61.3,25.1,29.92,SE,146,16.0,16.0,25,0.00,CLR,CLR,0.00,WeatherDisplay:10.34,2013-03-28 23:50:00,
2013-03-28 17:55:00,60.8,25.7,29.92,ESE,119,12.0,16.0,26,0.00,CLR,CLR,0.00,WeatherDisplay:10.34,2013-03-28 23:55:00,
2013-03-28 18:00:00,60.9,24.8,29.92,SE,134,16.0,16.0,25,0.00,CLR,CLR,0.00,WeatherDisplay:10.34,2013-03-29 00:00:00,
2013-03-28 18:05:00,60.8,25.7,29.92,SE,125,17.0,17.0,26,0.00,CLR,CLR,0.00,WeatherDisplay:10.34,2013-03-29 00:05:00,
2013-03-28 18:10:00,60.7,25.6,29.92,ESE,105,14.0,14.0,26,0.00,CLR,CLR,0.00,WeatherDisplay:10.34,2013-03-29 00:10:00,
2013-03-28 18:15:00,60.5,25.4,29.93,ESE,117,12.0,12.0,26,0.00,CLR,CLR,0.00,WeatherDisplay:10.34,2013-03-29 00:15:00,
2013-03-28 18:20:00,60.2,25.1,29.93,East,94,12.0,12.0,26,0.00,CLR,CLR,0.00,WeatherDisplay:10.34,2013-03-29 00:20:00,
2013-03-28 18:25:00,59.8,24.8,29.93,ESE,113,15.0,15.0,26,0.00,SCT,SCT,0.00,WeatherDisplay:10.34,2013-03-29 00:25:00,
2013-03-28 18:30:00,59.2,24.3,29.93,ESE,113,14.0,14.0,26,0.00,CLR,CLR,0.00,WeatherDisplay:10.34,2013-03-29 00:30:00,
2013-03-28 18:35:00,59.0,24.1,29.93,East,98,12.0,12.0,26,0.00,FEW,FEW,0.00,WeatherDisplay:10.34,2013-03-29 00:35:00,
2013-03-28 18:40:00,59.0,24.1,29.93,ESE,116,15.0,15.0,26,0.00,CLR,CLR,0.00,WeatherDisplay:10.34,2013-03-29 00:40:00,
2013-03-28 18:45:00,59.0,25.0,29.93,ESE,108,14.0,14.0,27,0.00,CLR,CLR,0.00,WeatherDisplay:10.34,2013-03-29 00:45:00,
2013-03-28 18:50:00,58.7,24.8,29.93,ESE,121,16.0,16.0,27,0.00,SCT,SCT,0.00,WeatherDisplay:10.34,2013-03-29 00:50:00,
2013-03-28 18:55:00,58.3,24.4,29.93,ESE,121,14.0,14.0,27,0.00,FEW,FEW,0.00,WeatherDisplay:10.34,2013-03-29 00:55:00,
2013-03-28 19:00:00,57.9,24.1,29.93,ESE,121,10.0,10.0,27,0.00,CLR,CLR,0.00,WeatherDisplay:10.34,2013-03-29 01:00:00,
2013-03-28 19:05:00,57.7,23.9,29.93,ESE,115,10.0,12.0,27,0.00,CLR,CLR,0.00,WeatherDisplay:10.34,2013-03-29 01:05:00,
2013-03-28 19:10:00,57.4,23.7,29.93,ESE,121,12.0,12.0,27,0.00,CLR,CLR,0.00,WeatherDisplay:10.34,2013-03-29 01:10:00,
2013-03-28 19:15:00,57.1,23.4,29.93,ESE,114,13.0,13.0,27,0.00,CLR,CLR,0.00,WeatherDisplay:10.34,2013-03-29 01:15:00,
2013-03-28 19:20:00,56.6,23.8,29.93,ESE,103,11.0,0.0,28,0.00,CLR,CLR,0.00,WeatherDisplay:10.34,2013-03-29 01:20:00,
2013-03-28 19:25:00,56.3,23.6,29.93,ESE,112,9.0,10.0,28,0.00,CLR,CLR,0.00,WeatherDisplay:10.34,2013-03-29 01:25:00,
2013-03-28 19:30:00,55.9,23.2,29.93,ESE,119,9.0,9.0,28,0.00,OVC,OVC,0.00,WeatherDisplay:10.34,2013-03-29 01:30:00,
2013-03-28 19:35:00,55.5,22.9,29.93,East,92,6.0,7.0,28,0.00,OVC,OVC,0.00,WeatherDisplay:10.34,2013-03-29 01:35:00,
2013-03-28 19:40:00,55.2,23.5,29.93,ESE,106,4.0,4.0,29,0.00,OVC,OVC,0.00,WeatherDisplay:10.34,2013-03-29 01:40:00,
2013-03-28 19:45:00,55.0,23.3,29.94,East,80,2.0,2.0,29,0.00,OVC,OVC,0.00,WeatherDisplay:10.34,2013-03-29 01:45:00,
2013-03-28 19:50:00,54.8,23.1,29.94,East,83,4.0,4.0,29,0.00,OVC,OVC,0.00,WeatherDisplay:10.34,2013-03-29 01:50:00,
2013-03-28 19:55:00,54.6,22.9,29.94,ENE,65,2.0,3.0,29,0.00,OVC,OVC,0.00,WeatherDisplay:10.34,2013-03-29 01:55:00,
2013-03-28 20:00:00,54.3,22.7,29.94,ENE,64,2.0,2.0,29,0.00,OVC,OVC,0.00,WeatherDisplay:10.34,2013-03-29 02:00:00,
2013-03-28 20:05:00,54.0,23.2,29.94,ENE,64,0.0,0.0,30,0.00,CLR,CLR,0.00,WeatherDisplay:10.34,2013-03-29 02:05:00,
2013-03-28 20:10:00,53.8,23.1,29.94,ENE,64,0.0,0.0,30,0.00,CLR,CLR,0.00,WeatherDisplay:10.34,2013-03-29 02:10:00,
2013-03-28 20:15:00,53.2,20.9,29.94,ENE,63,2.0,3.0,28,0.00,CLR,CLR,0.00,WeatherDisplay:10.34,2013-03-29 02:15:00,
2013-03-28 20:20:00,52.3,20.9,29.94,North,355,3.0,0.0,29,0.00,CLR,CLR,0.00,WeatherDisplay:10.34,2013-03-29 02:20:00,
2013-03-28 20:25:00,51.3,20.9,29.94,NNW,329,0.0,1.0,30,0.00,CLR,CLR,0.00,WeatherDisplay:10.34,2013-03-29 02:25:00,
2013-03-28 20:30:00,50.7,21.1,29.94,NNW,329,1.0,1.0,31,0.00,CLR,CLR,0.00,WeatherDisplay:10.34,2013-03-29 02:30:00,
2013-03-28 20:35:00,50.2,21.4,29.95,NNW,329,2.0,2.0,32,0.00,CLR,CLR,0.00,WeatherDisplay:10.34,2013-03-29 02:35:00,
2013-03-28 20:40:00,49.8,21.1,29.95,NNW,329,3.0,3.0,32,0.00,CLR,CLR,0.00,WeatherDisplay:10.34,2013-03-29 02:40:00,
2013-03-28 20:45:00,49.3,20.6,29.95,NNW,329,3.0,3.0,32,0.00,CLR,CLR,0.00,WeatherDisplay:10.34,2013-03-29 02:45:00,
2013-03-28 20:50:00,49.0,21.1,29.95,NNW,329,2.0,2.0,33,0.00,CLR,CLR,0.00,WeatherDisplay:10.34,2013-03-29 02:50:00,
2013-03-28 20:55:00,48.7,20.8,29.94,NNW,329,2.0,2.0,33,0.00,CLR,CLR,0.00,WeatherDisplay:10.34,2013-03-29 02:55:00,
2013-03-28 21:00:00,48.3,18.3,29.94,NNW,329,0.0,0.0,30,0.00,CLR,CLR,0.00,WeatherDisplay:10.34,2013-03-29 03:00:00,
2013-03-28 21:05:00,47.9,18.7,29.94,NNW,329,0.0,0.0,31,0.00,CLR,CLR,0.00,WeatherDisplay:10.34,2013-03-29 03:05:00,
2013-03-28 21:10:00,47.3,18.1,29.94,NNW,329,0.0,0.0,31,0.00,CLR,CLR,0.00,WeatherDisplay:10.34,2013-03-29 03:10:00,
2013-03-28 21:15:00,46.7,16.9,29.95,NNW,329,0.0,0.0,30,0.00,CLR,CLR,0.00,WeatherDisplay:10.34,2013-03-29 03:15:00,
2013-03-28 21:20:00,46.1,16.3,29.95,NNW,329,0.0,0.0,30,0.00,CLR,CLR,0.00,WeatherDisplay:10.34,2013-03-29 03:20:00,
2013-03-28 21:25:00,45.4,15.7,29.95,NNW,329,0.0,0.0,30,0.00,CLR,CLR,0.00,WeatherDisplay:10.34,2013-03-29 03:25:00,
2013-03-28 21:30:00,44.8,16.7,29.95,NNW,329,0.0,0.0,32,0.00,CLR,CLR,0.00,WeatherDisplay:10.34,2013-03-29 03:30:00,
2013-03-28 21:35:00,44.2,15.4,29.96,NNW,329,0.0,1.0,31,0.00,CLR,CLR,0.00,WeatherDisplay:10.34,2013-03-29 03:35:00,
2013-03-28 21:40:00,43.6,15.6,29.96,NNW,329,0.0,0.0,32,0.00,CLR,CLR,0.00,WeatherDisplay:10.34,2013-03-29 03:40:00,
2013-03-28 21:45:00,43.1,14.5,29.96,NNW,329,0.0,0.0,31,0.00,CLR,CLR,0.00,WeatherDisplay:10.34,2013-03-29 03:45:00,
2013-03-28 21:50:00,42.4,13.1,29.96,NNW,329,0.0,0.0,30,0.00,CLR,CLR,0.00,WeatherDisplay:10.34,2013-03-29 03:50:00,
2013-03-28 21:55:00,41.7,14.0,29.96,NNW,329,0.0,0.0,32,0.00,CLR,CLR,0.00,WeatherDisplay:10.34,2013-03-29 03:55:00,
2013-03-28 22:00:00,41.3,13.6,29.96,NNW,329,0.0,0.0,32,0.00,CLR,CLR,0.00,WeatherDisplay:10.34,2013-03-29 04:00:00,
2013-03-28 22:01:00,41.2,13.5,29.96,NNW,329,0.0,0.0,32,0.00,CLR,CLR,0.00,WeatherDisplay:10.34,2013-03-29 04:01:00,
2013-03-28 22:02:00,41.1,13.4,29.96,NNW,329,0.0,0.0,32,0.00,CLR,CLR,0.00,WeatherDisplay:10.34,2013-03-29 04:02:00,
2013-03-28 22:05:00,40.9,14.6,29.96,NNW,329,0.0,0.0,34,0.00,CLR,CLR,0.00,WeatherDisplay:10.34,2013-03-29 04:05:00,
2013-03-28 22:10:00,40.5,13.6,29.96,NNW,329,0.0,0.0,33,0.00,CLR,CLR,0.00,WeatherDisplay:10.34,2013-03-29 04:10:00,
2013-03-28 22:15:00,40.3,13.4,29.96,NNW,329,0.0,0.0,33,0.00,CLR,CLR,0.00,WeatherDisplay:10.34,2013-03-29 04:15:00,
2013-03-28 22:20:00,40.0,13.8,29.96,NNW,329,2.0,2.0,34,0.00,CLR,CLR,0.00,WeatherDisplay:10.34,2013-03-29 04:20:00,
2013-03-28 22:25:00,39.8,15.0,29.96,NNW,329,0.0,0.0,36,0.00,CLR,CLR,0.00,WeatherDisplay:10.34,2013-03-29 04:25:00,
2013-03-28 22:30:00,39.6,13.5,29.97,NNW,329,0.0,0.0,34,0.00,CLR,CLR,0.00,WeatherDisplay:10.34,2013-03-29 04:30:00,
2013-03-28 22:35:00,39.4,13.3,29.96,West,264,4.0,5.0,34,0.00,CLR,CLR,0.00,WeatherDisplay:10.34,2013-03-29 04:35:00,
2013-03-28 22:40:00,39.2,13.8,29.96,West,264,3.0,3.0,35,0.00,CLR,CLR,0.00,WeatherDisplay:10.34,2013-03-29 04:40:00,
2013-03-28 22:45:00,39.0,13.6,29.96,West,263,0.0,0.0,35,0.00,CLR,CLR,0.00,WeatherDisplay:10.34,2013-03-29 04:45:00,
2013-03-28 22:50:00,38.8,14.1,29.96,WSW,240,5.0,5.0,36,0.00,CLR,CLR,0.00,WeatherDisplay:10.34,2013-03-29 04:50:00,
2013-03-28 22:55:00,38.7,14.0,29.96,WSW,240,1.0,1.0,36,0.00,CLR,CLR,0.00,WeatherDisplay:10.34,2013-03-29 04:55:00,
2013-03-28 23:00:00,38.6,13.9,29.96,WSW,240,4.0,4.0,36,0.00,CLR,CLR,0.00,WeatherDisplay:10.34,2013-03-29 05:00:00,
2013-03-28 23:05:00,38.5,13.2,29.96,WSW,241,1.0,1.0,35,0.00,CLR,CLR,0.00,WeatherDisplay:10.34,2013-03-29 05:05:00,
2013-03-28 23:10:00,38.3,13.6,29.96,WSW,241,1.0,0.0,36,0.00,CLR,CLR,0.00,WeatherDisplay:10.34,2013-03-29 05:10:00,
2013-03-28 23:15:00,38.4,16.1,29.96,WSW,241,4.0,4.0,40,0.00,CLR,CLR,0.00,WeatherDisplay:10.34,2013-03-29 05:15:00,
2013-03-28 23:20:00,38.4,15.0,29.96,WSW,241,4.0,4.0,38,0.00,CLR,CLR,0.00,WeatherDisplay:10.34,2013-03-29 05:20:00,
2013-03-28 23:25:00,38.4,14.4,29.96,WSW,241,2.0,2.0,37,0.00,CLR,CLR,0.00,WeatherDisplay:10.34,2013-03-29 05:25:00,
2013-03-28 23:31:00,38.3,13.6,29.96,WSW,241,0.0,0.0,36,0.00,CLR,CLR,0.00,WeatherDisplay:10.34,2013-03-29 05:31:00,
2013-03-28 23:36:00,38.1,14.1,29.96,WSW,241,2.0,2.0,37,0.00,CLR,CLR,0.00,WeatherDisplay:10.34,2013-03-29 05:36:00,
2013-03-28 23:41:00,37.9,13.3,29.96,WSW,241,2.0,2.0,36,0.00,CLR,CLR,0.00,WeatherDisplay:10.34,2013-03-29 05:41:00,
2013-03-28 23:46:00,37.7,13.1,29.96,WSW,241,1.0,2.0,36,0.00,CLR,CLR,0.00,WeatherDisplay:10.34,2013-03-29 05:46:00,
2013-03-28 23:51:00,37.5,15.9,29.96,WSW,241,5.0,5.0,41,0.00,CLR,CLR,0.00,WeatherDisplay:10.34,2013-03-29 05:51:00,
2013-03-28 23:56:00,37.5,13.6,29.96,WSW,241,2.0,2.0,37,0.00,CLR,CLR,0.00,WeatherDisplay:10.34,2013-03-29 05:56:00,